Time;durP1;ratioP1;P1;durP2;ratioP2;P2;SDS_P1;SDS_P2;PMS_P1;PMS_P2;Temp;Humidity;BMP_temperature;BMP_pressure;BME280_temperature;BME280_humidity;BME280_pressure;Samples;Min_cycle;Max_cycle;Signal;HPM_P1;HPM_P2
2022/12/26 00:01:59;;;;;;;46.60;42.70;;;;;;;;;;5097940;28;20994;-87
2022/12/26 00:04:28;;;;;;;46.57;42.87;;;;;;;;;;5097555;28;20472;-86
2022/12/26 00:06:55;;;;;;;45.47;41.53;;;;;;;;;;5097220;28;20447;-87
2022/12/26 00:09:22;;;;;;;44.13;40.50;;;;;;;;;;5098013;28;20419;-87
2022/12/26 00:11:49;;;;;;;44.97;41.30;;;;;;;;;;5097167;28;20530;-87
2022/12/26 00:14:16;;;;;;;42.97;39.37;;;;;;;;;;5096816;28;20445;-87
2022/12/26 00:16:44;;;;;;;44.17;40.60;;;;;;;;;;5098195;28;20892;-86
2022/12/26 00:19:13;;;;;;;42.03;38.77;;;;;;;;;;5097534;28;20482;-86
2022/12/26 00:21:40;;;;;;;41.37;38.33;;;;;;;;;;5096801;28;20439;-87
2022/12/26 00:24:07;;;;;;;45.23;41.53;;;;;;;;;;5096805;28;20411;-87
2022/12/26 00:26:35;;;;;;;42.83;39.63;;;;;;;;;;5096717;28;20476;-87
2022/12/26 00:29:02;;;;;;;42.40;39.20;;;;;;;;;;5096290;28;20494;-87
2022/12/26 00:31:31;;;;;;;43.53;40.20;;;;;;;;;;5096952;28;20906;-87
2022/12/26 00:33:59;;;;;;;41.73;38.17;;;;;;;;;;5096095;28;20871;-87
2022/12/26 00:36:28;;;;;;;42.77;39.40;;;;;;;;;;5096880;28;20578;-87
2022/12/26 00:38:56;;;;;;;43.83;40.50;;;;;;;;;;5096585;28;20430;-87
2022/12/26 00:41:23;;;;;;;38.63;35.80;;;;;;;;;;5096617;28;20906;-87
2022/12/26 00:43:50;;;;;;;42.90;39.20;;;;;;;;;;5094913;28;20506;-87
2022/12/26 00:46:18;;;;;;;43.53;40.00;;;;;;;;;;5095954;28;20863;-87
2022/12/26 00:48:45;;;;;;;43.87;40.30;;;;;;;;;;5096072;28;20460;-87
2022/12/26 00:51:13;;;;;;;44.20;40.80;;;;;;;;;;5096214;28;20427;-87
2022/12/26 00:53:41;;;;;;;44.60;40.93;;;;;;;;;;5094913;28;20512;-87
2022/12/26 00:56:08;;;;;;;39.47;36.30;;;;;;;;;;5095143;28;20468;-86
2022/12/26 00:58:35;;;;;;;42.23;38.70;;;;;;;;;;5095687;28;20433;-87
2022/12/26 01:01:06;;;;;;;41.40;38.20;;;;;;;;;;5095764;28;20449;-87
2022/12/26 01:03:33;;;;;;;43.83;40.03;;;;;;;;;;5094803;28;20479;-87
2022/12/26 01:06:02;;;;;;;38.10;35.10;;;;;;;;;;5094600;28;20462;-86
2022/12/26 01:08:29;;;;;;;43.43;39.77;;;;;;;;;;5095072;28;20501;-87
2022/12/26 01:10:57;;;;;;;44.33;40.23;;;;;;;;;;5095111;28;20489;-87
2022/12/26 01:13:24;;;;;;;43.53;39.83;;;;;;;;;;5094795;28;20443;-87
2022/12/26 01:15:53;;;;;;;43.70;39.80;;;;;;;;;;5094933;28;20436;-87
2022/12/26 01:18:20;;;;;;;44.13;40.57;;;;;;;;;;5095130;28;20940;-87
2022/12/26 01:20:48;;;;;;;40.47;37.23;;;;;;;;;;5095429;28;20478;-87
2022/12/26 01:23:15;;;;;;;45.47;41.47;;;;;;;;;;5094634;28;20996;-87
2022/12/26 01:25:42;;;;;;;47.50;43.37;;;;;;;;;;5094657;28;20802;-87
2022/12/26 01:28:10;;;;;;;47.37;43.30;;;;;;;;;;5095059;28;20417;-87
2022/12/26 01:30:38;;;;;;;44.27;40.00;;;;;;;;;;5095366;28;20408;-86
2022/12/26 01:33:05;;;;;;;40.30;37.10;;;;;;;;;;5094276;28;20606;-87
2022/12/26 01:35:32;;;;;;;44.50;40.63;;;;;;;;;;5095384;28;20436;-87
2022/12/26 01:37:59;;;;;;;41.77;38.20;;;;;;;;;;5094739;28;20450;-87
2022/12/26 01:40:26;;;;;;;46.97;42.77;;;;;;;;;;5095576;28;20403;-87
2022/12/26 01:42:53;;;;;;;46.07;42.20;;;;;;;;;;5095505;28;20538;-87
2022/12/26 01:45:26;;;;;;;42.23;38.80;;;;;;;;;;5094499;28;20461;-87
2022/12/26 01:47:55;;;;;;;46.27;42.30;;;;;;;;;;5094753;28;20554;-87
2022/12/26 01:50:28;;;;;;;46.13;42.00;;;;;;;;;;5095397;28;20449;-86
2022/12/26 01:52:56;;;;;;;44.40;40.13;;;;;;;;;;5095453;28;20417;-88
2022/12/26 01:55:24;;;;;;;43.03;39.43;;;;;;;;;;5094778;28;20407;-87
2022/12/26 01:57:57;;;;;;;42.13;38.50;;;;;;;;;;5094487;28;20460;-87
2022/12/26 02:00:25;;;;;;;39.97;36.57;;;;;;;;;;5094845;28;20785;-87
2022/12/26 02:05:37;;;;;;;40.33;37.13;;;;;;;;;;5094851;28;20950;-87
2022/12/26 02:08:07;;;;;;;37.63;34.87;;;;;;;;;;5094326;28;20443;-87
2022/12/26 02:10:36;;;;;;;40.87;37.67;;;;;;;;;;5094965;28;20500;-87
2022/12/26 02:13:03;;;;;;;42.20;39.00;;;;;;;;;;5094689;28;20408;-87
2022/12/26 02:15:32;;;;;;;41.97;38.57;;;;;;;;;;5094516;28;20407;-87
2022/12/26 02:17:59;;;;;;;41.87;38.43;;;;;;;;;;5094930;28;20435;-87
2022/12/26 02:20:28;;;;;;;39.97;36.77;;;;;;;;;;5098611;28;20404;-87
2022/12/26 02:23:06;;;;;;;42.63;39.33;;;;;;;;;;5097944;28;20911;-87
2022/12/26 02:25:45;;;;;;;39.50;36.60;;;;;;;;;;5098276;28;20536;-87
2022/12/26 02:28:36;;;;;;;41.73;38.33;;;;;;;;;;5097661;28;20484;-87
2022/12/26 02:31:09;;;;;;;41.67;38.30;;;;;;;;;;5082485;28;20423;-87
2022/12/26 02:33:43;;;;;;;41.40;38.00;;;;;;;;;;5097742;28;20802;-87
2022/12/26 02:36:25;;;;;;;41.40;37.67;;;;;;;;;;5097913;28;20434;-87
2022/12/26 02:39:00;;;;;;;41.40;38.20;;;;;;;;;;5097325;28;20471;-87
2022/12/26 02:41:34;;;;;;;43.67;39.90;;;;;;;;;;5097662;28;20436;-86
2022/12/26 02:47:01;;;;;;;41.10;37.60;;;;;;;;;;5097098;28;20827;-87
2022/12/26 02:47:03;;;;;;;45.67;41.83;;;;;;;;;;5097377;28;20465;-87
2022/12/26 03:13:09;;;;;;;45.53;41.70;;;;;;;;;;5097377;28;20463;-87
2022/12/26 03:14:43;;;;;;;44.87;40.87;;;;;;;;;;5096294;28;20383;-87
2022/12/26 03:17:18;;;;;;;42.97;39.40;;;;;;;;;;5096720;28;21061;-87
2022/12/26 03:20:00;;;;;;;41.77;38.07;;;;;;;;;;5096299;28;20769;-87
2022/12/26 03:22:32;;;;;;;43.30;39.50;;;;;;;;;;5096727;28;20449;-87
2022/12/26 03:27:41;;;;;;;42.53;38.93;;;;;;;;;;5073134;28;20433;-87
2022/12/26 03:32:56;;;;;;;42.63;38.93;;;;;;;;;;5096160;28;20775;-88
2022/12/26 03:35:23;;;;;;;43.37;39.60;;;;;;;;;;5096079;28;20453;-87
2022/12/26 03:37:53;;;;;;;37.30;34.33;;;;;;;;;;5096268;28;20460;-87
2022/12/26 04:19:44;;;;;;;39.13;35.73;;;;;;;;;;5095360;28;20731;-87
2022/12/26 04:44:27;;;;;;;37.57;34.37;;;;;;;;;;5094304;28;20421;-87
2022/12/26 04:46:55;;;;;;;39.67;36.20;;;;;;;;;;5095100;28;20542;-87
2022/12/26 04:52:08;;;;;;;37.77;34.77;;;;;;;;;;5094918;28;20896;-87
2022/12/26 04:54:35;;;;;;;32.07;29.50;;;;;;;;;;5093956;28;20471;-87
2022/12/26 04:57:03;;;;;;;32.77;30.27;;;;;;;;;;5094909;28;20856;-87
2022/12/26 04:59:30;;;;;;;34.10;31.40;;;;;;;;;;5094749;28;20964;-87
2022/12/26 05:10:16;;;;;;;36.27;33.27;;;;;;;;;;5095378;28;20420;-87
2022/12/26 05:12:44;;;;;;;38.70;35.30;;;;;;;;;;5094868;28;20449;-87
2022/12/26 05:15:12;;;;;;;41.73;38.10;;;;;;;;;;5093902;28;20461;-87
2022/12/26 05:28:43;;;;;;;39.63;36.33;;;;;;;;;;5094441;28;20412;-87
2022/12/26 05:31:10;;;;;;;32.80;30.30;;;;;;;;;;5094679;28;20463;-87
2022/12/26 05:36:23;;;;;;;37.90;34.73;;;;;;;;;;5094608;28;20501;-87
2022/12/26 05:38:50;;;;;;;29.20;26.80;;;;;;;;;;5094527;28;20499;-87
2022/12/26 05:41:17;;;;;;;35.60;32.70;;;;;;;;;;5094693;28;20461;-87
2022/12/26 05:43:45;;;;;;;33.33;30.40;;;;;;;;;;5093640;28;20419;-87
2022/12/26 05:46:12;;;;;;;34.73;31.87;;;;;;;;;;5094177;28;20524;-87
2022/12/26 05:48:39;;;;;;;32.70;30.03;;;;;;;;;;5094179;28;20399;-87
2022/12/26 05:51:07;;;;;;;34.30;31.67;;;;;;;;;;5094235;28;20451;-87
2022/12/26 05:53:34;;;;;;;31.70;29.10;;;;;;;;;;5095913;28;20460;-87
2022/12/26 05:56:03;;;;;;;30.90;28.50;;;;;;;;;;5097764;28;20451;-87
2022/12/26 05:58:30;;;;;;;29.60;27.40;;;;;;;;;;5098195;28;20421;-87
2022/12/26 06:01:05;;;;;;;31.13;28.57;;;;;;;;;;5098688;28;20434;-87
2022/12/26 06:03:32;;;;;;;29.97;27.70;;;;;;;;;;5097750;28;20407;-87
2022/12/26 06:05:59;;;;;;;31.13;28.73;;;;;;;;;;5097629;28;20459;-87
2022/12/26 06:08:26;;;;;;;30.23;27.93;;;;;;;;;;5098688;28;20463;-87
2022/12/26 06:10:53;;;;;;;32.50;29.70;;;;;;;;;;5097765;28;20746;-87
2022/12/26 06:13:20;;;;;;;31.63;29.23;;;;;;;;;;5097439;28;20448;-87
2022/12/26 06:15:47;;;;;;;31.37;29.00;;;;;;;;;;5097189;28;21027;-87
2022/12/26 06:18:16;;;;;;;31.00;28.80;;;;;;;;;;5098564;28;20811;-87
2022/12/26 06:20:43;;;;;;;30.57;28.17;;;;;;;;;;5097648;28;20505;-87
2022/12/26 06:23:10;;;;;;;32.40;30.00;;;;;;;;;;5097090;28;20407;-87
2022/12/26 06:25:37;;;;;;;30.40;28.20;;;;;;;;;;5097448;28;20876;-87
2022/12/26 06:28:04;;;;;;;32.73;30.50;;;;;;;;;;5097714;28;20502;-87
2022/12/26 06:30:31;;;;;;;33.83;30.97;;;;;;;;;;5097635;28;20492;-86
2022/12/26 06:32:58;;;;;;;35.13;32.53;;;;;;;;;;5096838;28;20441;-88
2022/12/26 06:35:26;;;;;;;33.73;31.03;;;;;;;;;;5097029;28;20493;-87
2022/12/26 06:37:53;;;;;;;29.67;27.43;;;;;;;;;;5097370;28;20960;-87
2022/12/26 06:40:20;;;;;;;30.63;28.17;;;;;;;;;;5097591;28;20433;-87
2022/12/26 06:42:48;;;;;;;31.57;28.87;;;;;;;;;;5097404;28;20419;-87
2022/12/26 06:45:15;;;;;;;31.80;29.20;;;;;;;;;;5096381;28;20415;-88
2022/12/26 06:47:42;;;;;;;28.67;26.67;;;;;;;;;;5096822;28;20707;-87
2022/12/26 06:50:12;;;;;;;32.80;30.00;;;;;;;;;;5097279;28;20419;-87
2022/12/26 06:52:40;;;;;;;43.30;39.33;;;;;;;;;;5097431;28;20529;-87
2022/12/26 06:55:07;;;;;;;54.00;49.20;;;;;;;;;;5096251;28;20424;-87
2022/12/26 06:57:34;;;;;;;117.47;87.73;;;;;;;;;;5096087;28;20541;-87
2022/12/26 07:00:01;;;;;;;39.47;36.27;;;;;;;;;;5096775;28;20490;-88
2022/12/26 07:02:28;;;;;;;26.20;24.50;;;;;;;;;;5114961;28;20418;-88
2022/12/26 07:04:55;;;;;;;30.20;28.20;;;;;;;;;;5116376;28;20462;-88
2022/12/26 07:07:22;;;;;;;30.10;28.00;;;;;;;;;;5116386;28;20486;-88
2022/12/26 07:09:51;;;;;;;28.97;26.87;;;;;;;;;;5116944;27;20413;-87
2022/12/26 07:12:19;;;;;;;30.47;28.27;;;;;;;;;;5117023;28;20462;-87
2022/12/26 07:14:46;;;;;;;31.03;28.73;;;;;;;;;;5116584;28;20468;-87
2022/12/26 07:17:50;;;;;;;29.40;27.10;;;;;;;;;;5116167;28;20860;-89
2022/12/26 07:20:17;;;;;;;29.80;27.60;;;;;;;;;;5116275;28;20430;-87
2022/12/26 07:22:44;;;;;;;29.37;27.30;;;;;;;;;;5116497;28;20477;-88
2022/12/26 07:25:12;;;;;;;30.47;28.27;;;;;;;;;;5116356;28;20465;-87
2022/12/26 07:27:39;;;;;;;26.93;25.00;;;;;;;;;;5115774;28;20892;-88
2022/12/26 07:30:07;;;;;;;28.67;26.67;;;;;;;;;;5116635;28;20403;-87
2022/12/26 07:32:34;;;;;;;23.43;21.90;;;;;;;;;;5116373;28;20426;-87
2022/12/26 07:35:01;;;;;;;28.67;26.57;;;;;;;;;;5116007;28;20822;-88
2022/12/26 07:37:28;;;;;;;30.77;28.20;;;;;;;;;;5116236;28;20520;-86
2022/12/26 07:39:55;;;;;;;28.57;26.30;;;;;;;;;;5116015;28;20512;-87
2022/12/26 07:42:23;;;;;;;28.63;26.53;;;;;;;;;;5116436;28;20492;-87
2022/12/26 07:44:50;;;;;;;29.30;27.20;;;;;;;;;;5116051;28;20561;-87
2022/12/26 07:47:17;;;;;;;29.73;27.40;;;;;;;;;;5116420;28;20484;-87
2022/12/26 07:49:44;;;;;;;28.40;26.10;;;;;;;;;;5116502;28;20520;-87
2022/12/26 07:52:11;;;;;;;30.17;27.80;;;;;;;;;;5116513;28;20503;-87
2022/12/26 07:54:38;;;;;;;28.60;26.40;;;;;;;;;;5115848;28;20812;-87
2022/12/26 07:57:05;;;;;;;29.53;27.17;;;;;;;;;;5116432;28;20434;-87
2022/12/26 07:59:34;;;;;;;29.47;27.23;;;;;;;;;;5116725;28;20459;-87
2022/12/26 08:02:03;;;;;;;26.77;24.80;;;;;;;;;;5117169;28;20818;-87
2022/12/26 08:04:30;;;;;;;26.63;24.80;;;;;;;;;;5122751;28;20422;-86
2022/12/26 08:06:57;;;;;;;32.17;29.47;;;;;;;;;;5118216;28;20482;-86
2022/12/26 08:09:24;;;;;;;31.57;29.30;;;;;;;;;;5117673;28;20885;-86
2022/12/26 08:11:51;;;;;;;32.03;29.60;;;;;;;;;;5117914;28;20927;-87
2022/12/26 08:14:18;;;;;;;33.70;31.00;;;;;;;;;;5116857;28;20411;-87
2022/12/26 08:16:52;;;;;;;32.80;30.03;;;;;;;;;;5117024;27;20489;-87
2022/12/26 08:19:19;;;;;;;24.67;22.73;;;;;;;;;;5116698;28;20463;-86
2022/12/26 08:21:46;;;;;;;30.03;27.70;;;;;;;;;;5118077;28;20446;-86
2022/12/26 08:24:13;;;;;;;31.20;28.70;;;;;;;;;;5117560;28;20455;-87
2022/12/26 08:26:40;;;;;;;31.63;29.10;;;;;;;;;;5122758;28;20487;-87
2022/12/26 08:29:07;;;;;;;30.33;27.97;;;;;;;;;;5122405;28;20443;-86
2022/12/26 08:31:34;;;;;;;31.40;28.80;;;;;;;;;;5118682;28;20463;-86
2022/12/26 08:34:03;;;;;;;29.50;27.40;;;;;;;;;;5116969;28;20422;-87
2022/12/26 08:36:30;;;;;;;24.90;23.17;;;;;;;;;;5117609;28;20435;-91
2022/12/26 08:38:57;;;;;;;29.87;27.47;;;;;;;;;;5115024;28;20830;-89
2022/12/26 08:41:25;;;;;;;30.00;27.73;;;;;;;;;;5114925;28;20410;-89
2022/12/26 08:43:52;;;;;;;27.90;25.63;;;;;;;;;;5119923;28;20436;-85
2022/12/26 08:46:21;;;;;;;25.27;23.63;;;;;;;;;;5123708;27;20494;-83
2022/12/26 08:48:48;;;;;;;29.00;26.90;;;;;;;;;;5122392;28;20422;-84
2022/12/26 08:51:17;;;;;;;27.57;25.50;;;;;;;;;;5118609;28;20410;-83
2022/12/26 08:53:45;;;;;;;26.97;25.03;;;;;;;;;;5119866;28;21012;-83
2022/12/26 08:56:13;;;;;;;26.83;24.87;;;;;;;;;;5119649;28;20476;-88
2022/12/26 08:58:40;;;;;;;29.20;26.80;;;;;;;;;;5130591;28;20509;-87
2022/12/26 09:01:08;;;;;;;22.60;21.20;;;;;;;;;;5129712;28;20447;-86
2022/12/26 09:03:35;;;;;;;44.13;31.40;;;;;;;;;;5124082;28;20482;-82
2022/12/26 09:06:02;;;;;;;28.20;26.07;;;;;;;;;;5121685;28;20475;-83
2022/12/26 09:08:33;;;;;;;26.80;24.90;;;;;;;;;;5122024;27;20465;-82
2022/12/26 09:11:02;;;;;;;26.00;24.10;;;;;;;;;;5121021;28;20413;-83
2022/12/26 09:13:29;;;;;;;25.60;23.73;;;;;;;;;;5121406;28;20429;-82
2022/12/26 09:15:56;;;;;;;25.67;23.97;;;;;;;;;;5124048;28;20962;-86
2022/12/26 09:18:23;;;;;;;25.40;23.70;;;;;;;;;;5128334;28;20583;-86
2022/12/26 09:20:50;;;;;;;26.50;24.70;;;;;;;;;;5127711;27;20559;-87
2022/12/26 09:23:17;;;;;;;25.10;23.50;;;;;;;;;;5120531;28;20414;-83
2022/12/26 09:25:45;;;;;;;23.63;22.03;;;;;;;;;;5121411;28;20475;-82
2022/12/26 09:28:12;;;;;;;22.33;20.97;;;;;;;;;;5121645;28;20467;-83
2022/12/26 09:30:39;;;;;;;25.10;23.20;;;;;;;;;;5125613;28;20778;-82
2022/12/26 09:33:07;;;;;;;22.93;21.43;;;;;;;;;;5124905;27;20475;-83
2022/12/26 09:35:34;;;;;;;24.87;23.27;;;;;;;;;;5126254;28;20482;-82
2022/12/26 09:38:00;;;;;;;22.57;21.30;;;;;;;;;;5125352;28;20501;-82
2022/12/26 09:40:29;;;;;;;24.77;22.53;;;;;;;;;;5125506;28;20425;-82
2022/12/26 09:43:10;;;;;;;21.77;20.57;;;;;;;;;;5124418;27;21053;-83
2022/12/26 09:45:43;;;;;;;23.80;22.27;;;;;;;;;;5125319;28;20474;-82
2022/12/26 09:48:14;;;;;;;23.20;21.63;;;;;;;;;;5125112;27;20497;-82
2022/12/26 09:50:44;;;;;;;23.60;22.20;;;;;;;;;;5126019;28;20405;-83
2022/12/26 09:53:14;;;;;;;22.73;21.40;;;;;;;;;;5125855;28;20521;-82
2022/12/26 09:55:43;;;;;;;21.33;20.13;;;;;;;;;;5123388;28;20446;-85
2022/12/26 09:58:18;;;;;;;21.73;20.30;;;;;;;;;;5122845;28;20411;-82
2022/12/26 10:00:49;;;;;;;18.77;17.90;;;;;;;;;;5123020;28;20415;-83
2022/12/26 10:03:16;;;;;;;21.17;19.97;;;;;;;;;;5123562;28;20835;-83
2022/12/26 10:05:58;;;;;;;21.90;20.50;;;;;;;;;;5123184;28;20481;-84
2022/12/26 10:08:27;;;;;;;20.60;19.20;;;;;;;;;;5123446;28;20872;-84
2022/12/26 10:10:58;;;;;;;22.13;20.57;;;;;;;;;;5121943;28;20992;-87
2022/12/26 10:13:30;;;;;;;22.60;21.30;;;;;;;;;;5120949;28;20407;-84
2022/12/26 10:16:00;;;;;;;19.43;18.43;;;;;;;;;;5120781;28;20478;-83
2022/12/26 10:18:34;;;;;;;21.30;20.17;;;;;;;;;;5120230;27;20470;-83
2022/12/26 10:21:18;;;;;;;22.60;21.40;;;;;;;;;;5120671;28;20450;-84
2022/12/26 10:23:47;;;;;;;18.90;18.00;;;;;;;;;;5121093;27;20432;-83
2022/12/26 10:26:16;;;;;;;20.17;19.17;;;;;;;;;;5120746;27;20900;-83
2022/12/26 10:28:46;;;;;;;20.37;19.27;;;;;;;;;;5120916;28;20467;-84
2022/12/26 10:31:17;;;;;;;21.17;20.07;;;;;;;;;;5122278;28;20432;-83
2022/12/26 10:33:47;;;;;;;18.37;17.47;;;;;;;;;;5122228;28;20430;-84
2022/12/26 10:36:17;;;;;;;19.30;18.30;;;;;;;;;;5122910;28;20444;-83
2022/12/26 10:38:46;;;;;;;28.23;26.10;;;;;;;;;;5121336;27;20445;-84
2022/12/26 10:41:19;;;;;;;21.23;19.70;;;;;;;;;;5122438;28;20434;-83
2022/12/26 10:43:47;;;;;;;21.73;20.43;;;;;;;;;;5122146;28;20454;-84
2022/12/26 10:46:47;;;;;;;19.63;18.53;;;;;;;;;;5122670;28;20489;-84
2022/12/26 10:49:16;;;;;;;20.57;19.47;;;;;;;;;;5059104;28;20466;-84
2022/12/26 10:51:43;;;;;;;18.60;17.60;;;;;;;;;;5059242;28;20467;-84
2022/12/26 10:54:13;;;;;;;20.07;18.97;;;;;;;;;;5087087;28;20507;-83
2022/12/26 10:56:40;;;;;;;19.10;18.10;;;;;;;;;;5122583;28;20434;-83
2022/12/26 10:59:15;;;;;;;19.10;18.00;;;;;;;;;;5122054;27;20832;-84
2022/12/26 11:01:46;;;;;;;19.50;18.40;;;;;;;;;;5122654;28;20455;-83
2022/12/26 11:04:15;;;;;;;19.90;18.80;;;;;;;;;;5121658;28;20463;-84
2022/12/26 11:06:44;;;;;;;20.10;19.00;;;;;;;;;;5122278;28;20463;-84
2022/12/26 11:09:23;;;;;;;20.00;18.90;;;;;;;;;;5122087;27;20464;-84
2022/12/26 11:11:53;;;;;;;18.23;17.33;;;;;;;;;;5121953;28;20391;-84
2022/12/26 11:14:27;;;;;;;20.10;19.00;;;;;;;;;;5121308;28;20429;-83
2022/12/26 11:16:54;;;;;;;19.77;18.70;;;;;;;;;;5121889;28;20463;-83
2022/12/26 11:19:28;;;;;;;19.67;18.67;;;;;;;;;;5121249;27;20438;-83
2022/12/26 11:21:55;;;;;;;20.40;19.00;;;;;;;;;;5120743;28;20478;-86
2022/12/26 11:24:22;;;;;;;18.47;17.47;;;;;;;;;;5121271;28;20456;-82
2022/12/26 11:26:49;;;;;;;18.80;17.70;;;;;;;;;;5121071;28;20774;-81
2022/12/26 11:29:18;;;;;;;19.00;17.77;;;;;;;;;;5121521;27;21014;-82
2022/12/26 11:31:53;;;;;;;18.70;17.57;;;;;;;;;;5121758;28;20435;-82
2022/12/26 11:34:22;;;;;;;19.47;18.47;;;;;;;;;;5121010;28;21038;-82
2022/12/26 11:36:51;;;;;;;19.60;18.40;;;;;;;;;;5121582;28;20524;-82
2022/12/26 11:39:23;;;;;;;18.67;17.77;;;;;;;;;;5121137;28;20455;-83
2022/12/26 11:41:50;;;;;;;18.33;17.43;;;;;;;;;;5120594;28;20425;-81
2022/12/26 11:44:19;;;;;;;19.40;18.20;;;;;;;;;;5120472;28;20848;-82
2022/12/26 11:46:49;;;;;;;20.37;18.50;;;;;;;;;;5120780;27;20450;-82
2022/12/26 11:49:21;;;;;;;19.40;18.10;;;;;;;;;;5124011;27;20446;-82
2022/12/26 11:51:49;;;;;;;19.40;18.40;;;;;;;;;;5122704;28;20510;-81
2022/12/26 11:54:22;;;;;;;19.90;18.80;;;;;;;;;;5123685;28;20849;-82
2022/12/26 11:56:50;;;;;;;19.87;18.77;;;;;;;;;;5123104;27;20505;-81
2022/12/26 11:59:19;;;;;;;19.70;18.50;;;;;;;;;;5123571;28;20414;-82
2022/12/26 12:01:47;;;;;;;20.47;19.47;;;;;;;;;;5119912;27;20440;-82
2022/12/26 12:04:16;;;;;;;20.03;19.03;;;;;;;;;;5109298;28;20453;-81
2022/12/26 12:06:59;;;;;;;20.13;19.13;;;;;;;;;;5109508;27;20450;-82
2022/12/26 12:09:30;;;;;;;20.10;18.90;;;;;;;;;;5110647;28;20446;-82
2022/12/26 12:12:00;;;;;;;19.67;18.37;;;;;;;;;;5107906;28;20499;-82
2022/12/26 12:14:30;;;;;;;19.00;18.00;;;;;;;;;;5109448;28;20444;-82
2022/12/26 12:17:02;;;;;;;20.43;19.30;;;;;;;;;;5109398;27;20484;-82
2022/12/26 12:19:39;;;;;;;19.23;18.23;;;;;;;;;;5108808;28;20504;-82
2022/12/26 12:22:24;;;;;;;18.87;17.97;;;;;;;;;;5106871;28;20439;-81
2022/12/26 12:24:56;;;;;;;19.40;18.30;;;;;;;;;;5105988;28;20407;-82
2022/12/26 12:27:27;;;;;;;18.57;17.67;;;;;;;;;;5108774;28;20540;-82
2022/12/26 12:30:15;;;;;;;18.97;17.97;;;;;;;;;;5109427;28;20434;-82
2022/12/26 12:32:49;;;;;;;19.03;18.07;;;;;;;;;;5100453;28;20476;-82
2022/12/26 12:35:23;;;;;;;19.37;18.37;;;;;;;;;;5104628;28;20436;-81
2022/12/26 12:37:58;;;;;;;19.77;18.67;;;;;;;;;;5108601;28;20971;-83
2022/12/26 12:40:32;;;;;;;19.47;18.47;;;;;;;;;;5107251;28;20801;-82
2022/12/26 12:43:02;;;;;;;19.47;18.47;;;;;;;;;;5108037;28;20464;-83
2022/12/26 12:45:31;;;;;;;20.30;19.13;;;;;;;;;;5105474;28;20465;-82
2022/12/26 12:48:19;;;;;;;20.40;19.30;;;;;;;;;;5106126;28;20466;-81
2022/12/26 12:50:51;;;;;;;20.60;19.40;;;;;;;;;;5110218;28;20920;-81
2022/12/26 12:53:23;;;;;;;18.83;17.73;;;;;;;;;;5105771;28;20532;-82
2022/12/26 12:55:59;;;;;;;19.67;18.67;;;;;;;;;;5106709;27;20462;-81
2022/12/26 12:58:29;;;;;;;19.27;18.27;;;;;;;;;;5104653;28;20820;-82
2022/12/26 13:01:00;;;;;;;20.40;19.30;;;;;;;;;;5102368;28;20502;-81
2022/12/26 13:03:31;;;;;;;20.23;19.10;;;;;;;;;;5106460;28;20463;-82
2022/12/26 13:06:04;;;;;;;19.93;18.70;;;;;;;;;;5105656;28;20478;-82
2022/12/26 13:08:35;;;;;;;21.37;19.97;;;;;;;;;;5106458;28;20449;-82
2022/12/26 13:11:04;;;;;;;20.03;19.03;;;;;;;;;;5106660;28;20443;-82
2022/12/26 13:13:34;;;;;;;19.67;18.63;;;;;;;;;;5107937;28;20493;-82
2022/12/26 13:16:04;;;;;;;19.00;18.10;;;;;;;;;;5106009;28;20442;-82
2022/12/26 13:18:34;;;;;;;20.77;19.37;;;;;;;;;;5104804;28;20426;-82
2022/12/26 13:21:05;;;;;;;20.60;19.50;;;;;;;;;;5107357;28;20482;-82
2022/12/26 13:26:20;;;;;;;21.00;19.70;;;;;;;;;;5102643;28;20482;-88
2022/12/26 13:28:52;;;;;;;21.90;20.70;;;;;;;;;;5102043;28;20475;-87
2022/12/26 13:31:19;;;;;;;51.77;48.00;;;;;;;;;;5103947;28;20487;-88
2022/12/26 13:33:46;;;;;;;53.30;50.30;;;;;;;;;;5095469;28;21543;-87
2022/12/26 13:36:34;;;;;;;50.00;47.30;;;;;;;;;;5097389;28;21027;-87
2022/12/26 13:39:16;;;;;;;49.93;46.93;;;;;;;;;;5100499;28;20804;-86
2022/12/26 13:44:32;;;;;;;51.63;48.80;;;;;;;;;;5100042;28;20508;-87
2022/12/26 13:46:59;;;;;;;50.97;47.93;;;;;;;;;;5104938;28;20488;-88
2022/12/26 13:49:34;;;;;;;39.30;36.80;;;;;;;;;;5098463;28;20512;-87
2022/12/26 13:52:18;;;;;;;41.60;39.20;;;;;;;;;;5098225;28;21020;-87
2022/12/26 13:54:59;;;;;;;40.13;37.47;;;;;;;;;;5101698;28;20442;-87
2022/12/26 13:57:35;;;;;;;42.17;39.73;;;;;;;;;;5100605;28;20523;-87
2022/12/26 14:00:07;;;;;;;44.30;41.75;;;;;;;;;;5099095;28;20949;-88
2022/12/26 14:02:52;;;;;;;42.90;40.20;;;;;;;;;;5101493;28;20209;-86
2022/12/26 14:05:22;;;;;;;44.23;41.20;;;;;;;;;;5102729;28;20453;-87
2022/12/26 14:07:56;;;;;;;42.17;39.47;;;;;;;;;;5104855;28;21000;-84
2022/12/26 14:10:26;;;;;;;39.33;36.90;;;;;;;;;;5106273;28;20429;-86
2022/12/26 14:13:00;;;;;;;37.87;35.37;;;;;;;;;;5107443;28;20412;-85
2022/12/26 14:15:30;;;;;;;37.90;35.20;;;;;;;;;;5109886;28;20448;-87
2022/12/26 14:18:05;;;;;;;39.33;36.20;;;;;;;;;;5111065;28;20466;-87
2022/12/26 14:21:05;;;;;;;36.97;34.67;;;;;;;;;;5107495;28;20538;-87
2022/12/26 14:23:39;;;;;;;33.33;31.23;;;;;;;;;;5103668;28;20214;-86
2022/12/26 14:26:08;;;;;;;35.53;33.33;;;;;;;;;;5106324;28;20227;-87
2022/12/26 14:28:47;;;;;;;35.08;32.90;;;;;;;;;;5104634;28;20522;-88
2022/12/26 14:31:17;;;;;;;37.10;34.57;;;;;;;;;;5107770;28;20245;-87
2022/12/26 14:33:47;;;;;;;35.17;32.87;;;;;;;;;;5105780;28;20446;-87
2022/12/26 14:36:21;;;;;;;38.53;35.90;;;;;;;;;;5110364;28;20444;-87
2022/12/26 14:38:57;;;;;;;37.28;34.80;;;;;;;;;;5109436;28;21094;-87
2022/12/26 14:44:37;;;;;;;34.53;32.22;;;;;;;;;;5111793;28;21594;-85
2022/12/26 14:47:05;;;;;;;36.30;34.00;;;;;;;;;;5113155;28;20230;-86
2022/12/26 14:49:40;;;;;;;34.65;32.05;;;;;;;;;;5113201;28;20903;-87
2022/12/26 14:52:31;;;;;;;33.70;31.35;;;;;;;;;;5109609;28;20230;-81
2022/12/26 14:54:58;;;;;;;32.53;30.33;;;;;;;;;;5100397;28;20242;-85
2022/12/26 14:57:47;;;;;;;33.70;31.10;;;;;;;;;;5109495;27;20455;-89
2022/12/26 15:00:35;;;;;;;34.47;32.17;;;;;;;;;;5103739;28;20469;-87
2022/12/26 15:03:22;;;;;;;30.93;29.03;;;;;;;;;;5107893;28;20214;-87
2022/12/26 15:05:51;;;;;;;33.13;30.95;;;;;;;;;;5105941;28;20497;-87
2022/12/26 15:08:29;;;;;;;29.45;27.45;;;;;;;;;;5108141;28;20297;-87
2022/12/26 15:11:06;;;;;;;28.80;27.00;;;;;;;;;;5110796;28;20199;-87
2022/12/26 15:13:48;;;;;;;31.83;29.43;;;;;;;;;;5107544;28;20455;-86
2022/12/26 15:16:28;;;;;;;32.67;30.40;;;;;;;;;;5110729;28;20479;-87
2022/12/26 15:19:12;;;;;;;31.55;29.45;;;;;;;;;;5108170;28;20440;-87
2022/12/26 15:21:59;;;;;;;31.67;29.77;;;;;;;;;;5110475;28;20241;-85
2022/12/26 15:24:35;;;;;;;34.60;31.47;;;;;;;;;;5105197;28;20674;-88
2022/12/26 15:27:22;;;;;;;32.38;29.98;;;;;;;;;;5094448;28;20468;-89
2022/12/26 15:30:03;;;;;;;32.60;30.60;;;;;;;;;;5099651;28;20293;-89
2022/12/26 15:32:34;;;;;;;33.70;31.27;;;;;;;;;;5101219;28;20442;-89
2022/12/26 15:35:03;;;;;;;32.70;30.50;;;;;;;;;;5098750;28;20426;-89
2022/12/26 15:37:42;;;;;;;33.63;31.40;;;;;;;;;;5099839;28;20267;-90
2022/12/26 15:40:13;;;;;;;31.98;29.58;;;;;;;;;;5102341;28;20524;-89
2022/12/26 15:42:45;;;;;;;33.38;30.90;;;;;;;;;;5101327;28;20216;-89
2022/12/26 15:45:22;;;;;;;29.50;27.50;;;;;;;;;;5101077;28;20644;-89
2022/12/26 15:47:53;;;;;;;30.73;28.13;;;;;;;;;;5099693;28;20487;-89
2022/12/26 15:50:26;;;;;;;26.92;25.13;;;;;;;;;;5101833;28;20233;-89
2022/12/26 15:52:58;;;;;;;27.40;25.60;;;;;;;;;;5100545;28;20198;-89
2022/12/26 15:55:37;;;;;;;27.40;25.20;;;;;;;;;;5106516;28;20247;-89
2022/12/26 15:58:09;;;;;;;27.52;25.48;;;;;;;;;;5100081;28;20200;-89
2022/12/26 16:00:37;;;;;;;27.48;25.75;;;;;;;;;;5101643;28;20264;-88
2022/12/26 16:03:16;;;;;;;26.52;24.80;;;;;;;;;;5101051;28;20240;-89
2022/12/26 16:05:51;;;;;;;30.60;28.42;;;;;;;;;;5101528;28;20229;-89
2022/12/26 16:08:26;;;;;;;27.98;26.08;;;;;;;;;;5100560;28;20212;-89
2022/12/26 16:11:08;;;;;;;28.35;26.45;;;;;;;;;;5099532;28;21190;-88
2022/12/26 16:13:35;;;;;;;32.40;30.10;;;;;;;;;;5100711;28;20264;-89
2022/12/26 16:16:02;;;;;;;30.05;27.85;;;;;;;;;;5101000;28;20289;-89
2022/12/26 16:18:31;;;;;;;26.90;25.30;;;;;;;;;;5100905;28;20221;-89
2022/12/26 16:23:46;;;;;;;28.45;26.55;;;;;;;;;;5100182;28;20434;-89
2022/12/26 16:26:17;;;;;;;26.70;24.93;;;;;;;;;;5101276;28;20569;-89
2022/12/26 16:28:45;;;;;;;26.58;24.60;;;;;;;;;;5102038;28;20553;-88
2022/12/26 16:31:17;;;;;;;26.38;24.25;;;;;;;;;;5099192;28;20217;-88
2022/12/26 16:33:46;;;;;;;25.30;23.27;;;;;;;;;;5102426;28;20224;-90
2022/12/26 16:36:17;;;;;;;24.03;22.43;;;;;;;;;;5102437;28;20313;-90
2022/12/26 16:38:45;;;;;;;24.00;22.40;;;;;;;;;;5103611;28;20451;-89
2022/12/26 16:41:19;;;;;;;24.53;23.03;;;;;;;;;;5107261;28;20433;-90
2022/12/26 16:43:46;;;;;;;24.48;22.65;;;;;;;;;;5105483;28;20454;-91
2022/12/26 16:46:13;;;;;;;25.53;23.43;;;;;;;;;;5102560;28;20223;-89